createdAt,value
2022-08-23T00:05:08.966Z,38.81
2022-08-23T00:10:14.400Z,38.96
2022-08-23T00:15:20.486Z,38.60
2022-08-23T00:20:21.850Z,39.11
2022-08-23T00:25:23.498Z,39.07
2022-08-23T00:30:25.039Z,39.27
2022-08-23T00:35:27.496Z,39.32
2022-08-23T00:40:29.041Z,39.38
2022-08-23T00:46:00.530Z,39.82
2022-08-23T00:51:12.818Z,39.95
2022-08-23T00:56:17.749Z,40.03
2022-08-23T01:01:19.464Z,40.79
2022-08-23T01:06:53.258Z,40.93
2022-08-23T01:12:11.395Z,40.39
2022-08-23T01:17:19.549Z,40.90
2022-08-23T01:22:31.302Z,41.26
2022-08-23T01:27:33.210Z,41.32
2022-08-23T01:32:41.053Z,40.91
2022-08-23T01:37:43.162Z,41.35
2022-08-23T01:42:44.582Z,41.38
2022-08-23T01:47:45.970Z,42.24
2022-08-23T01:52:47.581Z,41.98
2022-08-23T01:57:52.178Z,42.37
2022-08-23T02:02:53.554Z,42.67
2022-08-23T02:07:55.401Z,42.81
2022-08-23T02:12:56.798Z,42.97
2022-08-23T02:18:00.118Z,42.70
2022-08-23T02:23:01.813Z,43.05
2022-08-23T02:28:04.674Z,43.52
2022-08-23T02:33:06.251Z,43.59
2022-08-23T02:38:11.490Z,43.74
2022-08-23T02:43:12.835Z,43.80
2022-08-23T02:48:14.233Z,43.70
2022-08-23T02:53:17.177Z,43.66
2022-08-23T02:58:18.518Z,43.56
2022-08-23T03:03:22.618Z,44.21
2022-08-23T03:08:25.141Z,44.57
2022-08-23T03:13:26.542Z,44.34
2022-08-23T03:18:28.007Z,44.20
2022-08-23T03:23:29.514Z,44.56
2022-08-23T03:28:32.893Z,44.40
2022-08-23T03:33:34.675Z,44.66
2022-08-23T03:38:36.896Z,45.21
2022-08-23T03:43:38.764Z,45.49
2022-08-23T03:48:41.356Z,45.30
2022-08-23T03:53:42.766Z,45.70
2022-08-23T03:58:44.140Z,46.00
2022-08-23T04:03:45.743Z,45.94
2022-08-23T04:08:47.677Z,46.31
2022-08-23T04:13:49.308Z,46.42
2022-08-23T04:18:50.702Z,46.98
2022-08-23T04:23:52.692Z,47.04
2022-08-23T04:28:54.514Z,47.05
2022-08-23T04:33:56.616Z,47.35
2022-08-23T04:38:58.473Z,47.58
2022-08-23T04:44:00.262Z,47.17
2022-08-23T04:49:03.471Z,47.59
2022-08-23T04:54:05.206Z,47.48
2022-08-23T04:59:07.062Z,47.75
2022-08-23T05:04:08.985Z,47.84
2022-08-23T05:09:10.590Z,48.08
2022-08-23T05:14:11.953Z,48.60
2022-08-23T05:19:13.377Z,48.45
2022-08-23T05:24:14.785Z,48.64
2022-08-23T05:29:16.281Z,48.63
2022-08-23T05:34:22.651Z,48.86
2022-08-23T05:39:32.869Z,49.10
2022-08-23T05:44:38.810Z,49.03
2022-08-23T05:49:40.631Z,49.03
2022-08-23T05:54:42.127Z,48.83
2022-08-23T05:59:43.551Z,49.32
2022-08-23T06:04:44.960Z,48.78
2022-08-23T06:09:46.613Z,49.45
2022-08-23T06:14:48.195Z,49.11
2022-08-23T06:19:49.915Z,48.17
2022-08-23T06:24:51.632Z,47.78
2022-08-23T06:29:53.207Z,47.65
2022-08-23T06:35:19.419Z,47.17
2022-08-23T06:40:17.896Z,47.07
2022-08-23T06:45:19.451Z,46.23
2022-08-23T06:50:32.411Z,46.77
2022-08-23T06:55:34.046Z,45.38
2022-08-23T07:00:35.802Z,45.40
2022-08-23T07:05:37.151Z,45.36
2022-08-23T07:10:38.491Z,44.72
2022-08-23T07:15:39.875Z,43.87
2022-08-23T07:20:41.442Z,43.85
2022-08-23T07:25:43.679Z,43.79
2022-08-23T07:30:45.625Z,42.86
2022-08-23T07:35:51.286Z,42.40
2022-08-23T07:40:54.174Z,41.84
2022-08-23T07:45:55.667Z,42.09
2022-08-23T07:51:02.195Z,41.30
2022-08-23T07:56:09.354Z,40.94
2022-08-23T08:01:22.015Z,41.34
2022-08-23T08:06:27.614Z,41.00
2022-08-23T08:11:34.949Z,40.49
2022-08-23T08:16:46.099Z,40.03
2022-08-23T08:21:48.579Z,38.47
2022-08-23T08:26:49.949Z,38.77
2022-08-23T08:31:54.140Z,38.54
2022-08-23T08:36:58.698Z,37.59
2022-08-23T08:42:12.211Z,37.82
2022-08-23T08:47:19.019Z,37.11
2022-08-23T08:52:27.805Z,36.47
2022-08-23T08:57:41.221Z,35.53
2022-08-23T09:02:43.316Z,35.02
2022-08-23T09:08:06.349Z,35.66
2022-08-23T09:13:19.839Z,33.89
2022-08-23T09:18:23.523Z,34.77
2022-08-23T09:23:34.292Z,33.58
2022-08-23T09:28:36.941Z,33.91
2022-08-23T09:33:43.897Z,33.24
2022-08-23T09:39:30.543Z,32.97
2022-08-23T09:44:42.048Z,32.84
2022-08-23T09:49:47.623Z,31.21
2022-08-23T09:55:02.905Z,31.07
2022-08-23T10:00:17.372Z,28.77
2022-08-23T10:05:29.447Z,29.00
2022-08-23T10:10:33.794Z,29.26
2022-08-23T10:16:09.468Z,28.56
2022-08-23T10:21:24.000Z,27.35
2022-08-23T10:26:33.729Z,23.85
2022-08-23T10:31:47.583Z,20.60
2022-08-23T10:37:08.870Z,18.02
2022-08-23T10:42:54.667Z,21.23
2022-08-23T10:48:02.447Z,21.42
2022-08-23T10:53:13.468Z,18.56
2022-08-23T10:58:21.160Z,16.36
2022-08-23T11:03:57.812Z,14.95
2022-08-23T11:09:01.176Z,13.72
2022-08-23T11:14:04.190Z,13.07
2022-08-23T11:19:12.846Z,11.87
2022-08-23T11:24:18.285Z,12.58
2022-08-23T11:29:22.520Z,11.95
2022-08-23T11:34:50.298Z,10.88
2022-08-23T11:40:00.516Z,10.79
2022-08-23T11:45:03.431Z,10.97
2022-08-23T11:50:25.138Z,10.46
2022-08-23T11:55:47.977Z,10.66
2022-08-23T12:01:09.931Z,10.81
2022-08-23T12:06:51.516Z,12.97
2022-08-23T12:11:56.066Z,15.50
2022-08-23T12:17:29.675Z,16.19
2022-08-23T12:22:51.993Z,17.28
2022-08-23T12:28:00.192Z,18.04
2022-08-23T12:33:16.877Z,17.79
2022-08-23T12:38:24.307Z,18.97
2022-08-23T12:43:32.257Z,18.15
2022-08-23T12:48:46.111Z,18.11
2022-08-23T12:53:47.556Z,18.52
2022-08-23T12:58:54.632Z,18.86
2022-08-23T13:04:04.767Z,20.08
2022-08-23T13:09:22.481Z,19.67
2022-08-23T13:14:41.834Z,19.88
2022-08-23T13:19:43.838Z,19.10
2022-08-23T13:25:24.583Z,19.72
2022-08-23T13:30:22.868Z,19.47
2022-08-23T13:36:13.184Z,19.36
2022-08-23T13:41:38.682Z,19.54
2022-08-23T13:46:46.219Z,20.09
2022-08-23T13:52:18.361Z,20.38
2022-08-23T13:57:22.276Z,20.38
2022-08-23T14:02:24.409Z,20.89
2022-08-23T14:07:25.931Z,21.29
2022-08-23T14:12:31.504Z,21.10
2022-08-23T14:17:38.554Z,21.29
2022-08-23T14:22:40.527Z,21.38
2022-08-23T14:27:44.587Z,21.53
2022-08-23T14:32:45.919Z,21.78
2022-08-23T14:38:04.641Z,25.56
2022-08-23T14:43:06.507Z,23.20
2022-08-23T14:48:07.825Z,22.59
2022-08-23T14:53:10.239Z,22.89
2022-08-23T14:58:11.681Z,22.80
2022-08-23T15:03:16.613Z,22.67
2022-08-23T15:08:18.912Z,23.37
2022-08-23T15:13:29.747Z,23.12
2022-08-23T15:18:36.642Z,23.41
2022-08-23T15:23:38.116Z,23.20
2022-08-23T15:28:40.230Z,23.05
2022-08-23T15:33:41.702Z,23.38
2022-08-23T15:38:45.334Z,23.80
2022-08-23T15:43:47.274Z,24.37
2022-08-23T15:48:54.695Z,23.70
2022-08-23T15:53:56.655Z,23.46
2022-08-23T15:58:59.588Z,23.63
2022-08-23T16:04:02.177Z,24.04
2022-08-23T16:09:05.402Z,23.59
2022-08-23T16:14:06.812Z,23.75
2022-08-23T16:19:09.005Z,24.09
2022-08-23T16:24:10.713Z,23.72
2022-08-23T16:29:17.095Z,24.03
2022-08-23T16:34:20.041Z,24.04
2022-08-23T16:39:21.430Z,24.02
2022-08-23T16:44:23.883Z,24.05
2022-08-23T16:49:25.300Z,24.11
2022-08-23T16:54:28.358Z,24.46
2022-08-23T16:59:29.860Z,24.37
2022-08-23T17:04:32.793Z,25.28
2022-08-23T17:09:34.226Z,24.54
2022-08-23T17:14:35.645Z,24.57
2022-08-23T17:19:39.050Z,25.01
2022-08-23T17:24:40.666Z,24.92
2022-08-23T17:29:42.171Z,25.08
2022-08-23T17:34:43.546Z,25.32
2022-08-23T17:39:45.379Z,25.34
2022-08-23T17:44:46.854Z,25.63
2022-08-23T17:49:49.325Z,25.38
2022-08-23T17:54:50.745Z,24.72
2022-08-23T17:59:53.140Z,26.05
2022-08-23T18:04:54.573Z,25.11
2022-08-23T18:09:56.887Z,25.00
2022-08-23T18:14:58.322Z,26.30
2022-08-23T18:20:00.375Z,26.55
2022-08-23T18:25:01.742Z,26.73
2022-08-23T18:30:04.596Z,27.04
2022-08-23T18:35:06.536Z,27.83
2022-08-23T18:40:10.131Z,28.12
2022-08-23T18:45:13.899Z,28.56
2022-08-23T18:50:16.387Z,29.76
2022-08-23T18:55:20.089Z,29.52
2022-08-23T19:00:21.622Z,30.06
2022-08-23T19:05:23.118Z,29.93
2022-08-23T19:10:25.062Z,30.09
2022-08-23T19:15:28.809Z,29.83
2022-08-23T19:20:30.663Z,31.45
2022-08-23T19:25:34.784Z,31.01
2022-08-23T19:30:37.238Z,30.87
2022-08-23T19:35:42.410Z,31.57
2022-08-23T19:40:43.985Z,31.29
2022-08-23T19:45:48.656Z,32.22
2022-08-23T19:50:50.506Z,32.24
2022-08-23T19:55:51.924Z,32.37
2022-08-23T20:00:54.417Z,32.90
2022-08-23T20:05:55.883Z,32.83
2022-08-23T20:10:57.255Z,32.91
2022-08-23T20:15:58.664Z,33.54
2022-08-23T20:21:00.578Z,34.22
2022-08-23T20:26:01.948Z,33.71
2022-08-23T20:31:28.264Z,34.13
2022-08-23T20:36:29.770Z,33.70
2022-08-23T20:41:35.067Z,35.82
2022-08-23T20:46:36.774Z,35.22
2022-08-23T20:51:39.206Z,34.87
2022-08-23T20:56:41.271Z,36.76
2022-08-23T21:01:42.743Z,37.04
2022-08-23T21:06:48.639Z,36.68
2022-08-23T21:11:51.192Z,36.89
2022-08-23T21:16:52.798Z,36.83
2022-08-23T21:21:54.326Z,37.27
2022-08-23T21:26:55.766Z,36.36
2022-08-23T21:31:57.719Z,36.57
2022-08-23T21:36:59.184Z,36.95
2022-08-23T21:42:00.619Z,37.31
2022-08-23T21:47:02.035Z,36.93
2022-08-23T21:52:04.535Z,38.13
2022-08-23T21:57:05.984Z,37.58
2022-08-23T22:02:07.386Z,37.36
2022-08-23T22:07:08.892Z,37.99
2022-08-23T22:12:10.267Z,36.69
2022-08-23T22:17:11.719Z,38.52
2022-08-23T22:22:15.023Z,38.40
2022-08-23T22:27:17.357Z,38.87
2022-08-23T22:32:22.853Z,38.79
2022-08-23T22:37:25.254Z,39.03
2022-08-23T22:42:26.757Z,39.33
2022-08-23T22:47:29.698Z,39.10
2022-08-23T22:52:31.190Z,39.69
2022-08-23T22:57:32.627Z,39.70
2022-08-23T23:02:34.003Z,40.05
2022-08-23T23:07:54.167Z,39.64
2022-08-23T23:12:55.815Z,39.81
2022-08-23T23:17:57.259Z,39.79
2022-08-23T23:22:58.778Z,39.88
2022-08-23T23:28:01.914Z,39.85
2022-08-23T23:33:04.649Z,40.20
2022-08-23T23:38:06.822Z,40.18
2022-08-23T23:43:11.223Z,40.58
2022-08-23T23:48:14.867Z,39.84
2022-08-23T23:53:16.409Z,40.30
2022-08-23T23:58:18.034Z,40.21
